sensor_id;sensor_type;location;lat;lon;timestamp;temperature;humidity
70368;DHT22;57789;53.868;10.728;2023-02-25T00:01:27;2.70;99.90
70368;DHT22;57789;53.868;10.728;2023-02-25T00:03:55;2.70;99.90
70368;DHT22;57789;53.868;10.728;2023-02-25T00:06:24;2.70;99.90
70368;DHT22;57789;53.868;10.728;2023-02-25T00:08:51;2.70;99.90
70368;DHT22;57789;53.868;10.728;2023-02-25T00:11:19;2.70;99.90
70368;DHT22;57789;53.868;10.728;2023-02-25T00:13:46;2.70;99.90
70368;DHT22;57789;53.868;10.728;2023-02-25T00:16:14;2.70;99.90
70368;DHT22;57789;53.868;10.728;2023-02-25T00:18:43;2.60;99.90
70368;DHT22;57789;53.868;10.728;2023-02-25T00:21:17;2.60;99.90
70368;DHT22;57789;53.868;10.728;2023-02-25T00:23:46;2.60;99.90
70368;DHT22;57789;53.868;10.728;2023-02-25T00:26:13;2.60;99.90
70368;DHT22;57789;53.868;10.728;2023-02-25T00:28:39;2.60;99.90
70368;DHT22;57789;53.868;10.728;2023-02-25T00:31:24;2.50;99.90
70368;DHT22;57789;53.868;10.728;2023-02-25T00:33:50;2.50;99.90
70368;DHT22;57789;53.868;10.728;2023-02-25T00:36:21;2.50;99.90
70368;DHT22;57789;53.868;10.728;2023-02-25T00:38:53;2.50;99.90
70368;DHT22;57789;53.868;10.728;2023-02-25T00:41:26;2.50;99.90
70368;DHT22;57789;53.868;10.728;2023-02-25T00:43:57;2.50;99.90
70368;DHT22;57789;53.868;10.728;2023-02-25T00:46:24;2.50;99.90
70368;DHT22;57789;53.868;10.728;2023-02-25T00:48:51;2.50;99.90
70368;DHT22;57789;53.868;10.728;2023-02-25T00:51:22;2.50;99.90
70368;DHT22;57789;53.868;10.728;2023-02-25T00:53:47;2.50;99.90
70368;DHT22;57789;53.868;10.728;2023-02-25T00:56:15;2.50;99.90
70368;DHT22;57789;53.868;10.728;2023-02-25T00:58:43;2.50;99.90
70368;DHT22;57789;53.868;10.728;2023-02-25T01:01:30;2.60;99.90
70368;DHT22;57789;53.868;10.728;2023-02-25T01:03:57;2.60;99.90
70368;DHT22;57789;53.868;10.728;2023-02-25T01:06:25;2.60;99.90
70368;DHT22;57789;53.868;10.728;2023-02-25T01:08:51;2.60;99.90
70368;DHT22;57789;53.868;10.728;2023-02-25T01:11:20;2.70;99.90
70368;DHT22;57789;53.868;10.728;2023-02-25T01:13:49;2.70;99.90
70368;DHT22;57789;53.868;10.728;2023-02-25T01:16:18;2.70;99.90
70368;DHT22;57789;53.868;10.728;2023-02-25T01:18:44;2.80;99.90
70368;DHT22;57789;53.868;10.728;2023-02-25T01:21:20;2.80;99.90
70368;DHT22;57789;53.868;10.728;2023-02-25T01:23:47;2.80;99.90
70368;DHT22;57789;53.868;10.728;2023-02-25T01:26:14;2.80;99.90
70368;DHT22;57789;53.868;10.728;2023-02-25T01:28:40;2.80;99.90
70368;DHT22;57789;53.868;10.728;2023-02-25T01:31:06;2.80;99.90
70368;DHT22;57789;53.868;10.728;2023-02-25T01:33:35;2.80;99.90
70368;DHT22;57789;53.868;10.728;2023-02-25T01:36:05;2.90;99.90
70368;DHT22;57789;53.868;10.728;2023-02-25T01:38:32;2.80;99.90
70368;DHT22;57789;53.868;10.728;2023-02-25T01:40:58;2.80;99.90
70368;DHT22;57789;53.868;10.728;2023-02-25T01:43:24;2.80;99.90
70368;DHT22;57789;53.868;10.728;2023-02-25T01:45:50;2.80;99.90
70368;DHT22;57789;53.868;10.728;2023-02-25T01:48:27;2.80;99.90
70368;DHT22;57789;53.868;10.728;2023-02-25T01:50:59;2.80;99.90
70368;DHT22;57789;53.868;10.728;2023-02-25T01:53:32;2.80;99.90
70368;DHT22;57789;53.868;10.728;2023-02-25T01:56:00;2.80;99.90
70368;DHT22;57789;53.868;10.728;2023-02-25T01:58:27;2.80;99.90
70368;DHT22;57789;53.868;10.728;2023-02-25T02:00:53;2.80;99.90
70368;DHT22;57789;53.868;10.728;2023-02-25T02:03:22;2.70;99.90
70368;DHT22;57789;53.868;10.728;2023-02-25T02:08:21;2.70;99.90
70368;DHT22;57789;53.868;10.728;2023-02-25T02:10:48;2.70;99.90
70368;DHT22;57789;53.868;10.728;2023-02-25T02:13:14;2.70;99.90
70368;DHT22;57789;53.868;10.728;2023-02-25T02:15:48;2.70;99.90
70368;DHT22;57789;53.868;10.728;2023-02-25T02:18:16;2.70;99.90
70368;DHT22;57789;53.868;10.728;2023-02-25T02:26:55;2.80;99.90
70368;DHT22;57789;53.868;10.728;2023-02-25T02:32:27;2.80;99.90
70368;DHT22;57789;53.868;10.728;2023-02-25T02:35:22;2.80;99.90
70368;DHT22;57789;53.868;10.728;2023-02-25T02:48:42;2.80;99.90
70368;DHT22;57789;53.868;10.728;2023-02-25T02:51:15;2.70;99.90
70368;DHT22;57789;53.868;10.728;2023-02-25T02:53:48;2.70;99.90
70368;DHT22;57789;53.868;10.728;2023-02-25T02:56:16;2.70;99.90
70368;DHT22;57789;53.868;10.728;2023-02-25T02:58:56;2.80;99.90
70368;DHT22;57789;53.868;10.728;2023-02-25T03:01:27;2.80;99.90
70368;DHT22;57789;53.868;10.728;2023-02-25T03:04:07;2.70;99.90
70368;DHT22;57789;53.868;10.728;2023-02-25T03:06:37;2.70;99.90
70368;DHT22;57789;53.868;10.728;2023-02-25T03:09:29;2.70;99.90
70368;DHT22;57789;53.868;10.728;2023-02-25T03:11:56;2.70;99.90
70368;DHT22;57789;53.868;10.728;2023-02-25T03:14:22;2.70;99.90
70368;DHT22;57789;53.868;10.728;2023-02-25T03:17:04;2.70;99.90
70368;DHT22;57789;53.868;10.728;2023-02-25T03:19:40;2.70;99.90
70368;DHT22;57789;53.868;10.728;2023-02-25T03:22:18;2.80;99.90
70368;DHT22;57789;53.868;10.728;2023-02-25T03:25:03;2.70;99.90
70368;DHT22;57789;53.868;10.728;2023-02-25T03:27:37;2.70;99.90
70368;DHT22;57789;53.868;10.728;2023-02-25T03:30:30;2.80;99.90
70368;DHT22;57789;53.868;10.728;2023-02-25T03:33:23;2.80;99.90
70368;DHT22;57789;53.868;10.728;2023-02-25T03:35:53;2.80;99.90
70368;DHT22;57789;53.868;10.728;2023-02-25T03:38:24;2.70;99.90
70368;DHT22;57789;53.868;10.728;2023-02-25T03:40:52;2.80;99.90
70368;DHT22;57789;53.868;10.728;2023-02-25T03:43:49;2.80;99.90
70368;DHT22;57789;53.868;10.728;2023-02-25T03:46:18;2.80;99.90
70368;DHT22;57789;53.868;10.728;2023-02-25T03:48:44;2.80;99.90
70368;DHT22;57789;53.868;10.728;2023-02-25T03:51:12;2.70;99.90
70368;DHT22;57789;53.868;10.728;2023-02-25T03:53:39;2.80;99.90
70368;DHT22;57789;53.868;10.728;2023-02-25T03:56:08;2.80;99.90
70368;DHT22;57789;53.868;10.728;2023-02-25T03:58:38;2.80;99.90
70368;DHT22;57789;53.868;10.728;2023-02-25T04:01:12;2.80;99.90
70368;DHT22;57789;53.868;10.728;2023-02-25T04:03:39;2.90;99.90
70368;DHT22;57789;53.868;10.728;2023-02-25T04:06:04;2.90;99.90
70368;DHT22;57789;53.868;10.728;2023-02-25T04:08:30;2.90;99.90
70368;DHT22;57789;53.868;10.728;2023-02-25T04:10:56;2.80;99.90
70368;DHT22;57789;53.868;10.728;2023-02-25T04:13:22;2.80;99.90
70368;DHT22;57789;53.868;10.728;2023-02-25T04:15:48;2.80;99.90
70368;DHT22;57789;53.868;10.728;2023-02-25T04:18:15;2.80;99.90
70368;DHT22;57789;53.868;10.728;2023-02-25T04:20:41;2.70;99.90
70368;DHT22;57789;53.868;10.728;2023-02-25T04:23:07;2.70;99.90
70368;DHT22;57789;53.868;10.728;2023-02-25T04:25:33;2.70;99.90
70368;DHT22;57789;53.868;10.728;2023-02-25T04:27:59;2.70;99.90
70368;DHT22;57789;53.868;10.728;2023-02-25T04:30:25;2.70;99.90
70368;DHT22;57789;53.868;10.728;2023-02-25T04:32:51;2.70;99.90
70368;DHT22;57789;53.868;10.728;2023-02-25T04:35:16;2.70;99.90
70368;DHT22;57789;53.868;10.728;2023-02-25T04:37:43;2.60;99.90
70368;DHT22;57789;53.868;10.728;2023-02-25T04:40:17;2.60;99.90
70368;DHT22;57789;53.868;10.728;2023-02-25T04:42:43;2.70;99.90
70368;DHT22;57789;53.868;10.728;2023-02-25T04:45:10;2.60;99.90
70368;DHT22;57789;53.868;10.728;2023-02-25T04:47:36;2.70;99.90
70368;DHT22;57789;53.868;10.728;2023-02-25T04:50:02;2.60;99.90
70368;DHT22;57789;53.868;10.728;2023-02-25T04:52:28;2.50;99.90
70368;DHT22;57789;53.868;10.728;2023-02-25T04:54:54;2.40;99.90
70368;DHT22;57789;53.868;10.728;2023-02-25T04:57:21;2.40;99.90
70368;DHT22;57789;53.868;10.728;2023-02-25T04:59:46;2.40;99.90
70368;DHT22;57789;53.868;10.728;2023-02-25T05:02:12;2.30;99.90
70368;DHT22;57789;53.868;10.728;2023-02-25T05:04:39;2.30;99.90
70368;DHT22;57789;53.868;10.728;2023-02-25T05:07:05;2.30;99.90
70368;DHT22;57789;53.868;10.728;2023-02-25T05:09:32;2.30;99.90
70368;DHT22;57789;53.868;10.728;2023-02-25T05:11:57;2.30;99.90
70368;DHT22;57789;53.868;10.728;2023-02-25T05:14:23;2.20;99.90
70368;DHT22;57789;53.868;10.728;2023-02-25T05:16:49;2.10;99.90
70368;DHT22;57789;53.868;10.728;2023-02-25T05:19:17;2.00;99.90
70368;DHT22;57789;53.868;10.728;2023-02-25T05:21:42;1.80;99.90
70368;DHT22;57789;53.868;10.728;2023-02-25T05:24:10;1.80;99.90
70368;DHT22;57789;53.868;10.728;2023-02-25T05:26:37;1.70;99.90
70368;DHT22;57789;53.868;10.728;2023-02-25T05:29:03;1.70;99.90
70368;DHT22;57789;53.868;10.728;2023-02-25T05:31:29;1.70;99.90
70368;DHT22;57789;53.868;10.728;2023-02-25T05:33:55;1.60;99.90
70368;DHT22;57789;53.868;10.728;2023-02-25T05:36:21;1.60;99.90
70368;DHT22;57789;53.868;10.728;2023-02-25T05:38:47;1.60;99.90
70368;DHT22;57789;53.868;10.728;2023-02-25T05:41:13;1.50;99.90
70368;DHT22;57789;53.868;10.728;2023-02-25T05:43:40;1.40;99.90
70368;DHT22;57789;53.868;10.728;2023-02-25T05:46:06;1.40;99.90
70368;DHT22;57789;53.868;10.728;2023-02-25T05:48:36;1.40;99.90
70368;DHT22;57789;53.868;10.728;2023-02-25T05:51:09;1.40;99.90
70368;DHT22;57789;53.868;10.728;2023-02-25T05:53:36;1.30;99.90
70368;DHT22;57789;53.868;10.728;2023-02-25T05:56:12;1.40;99.90
70368;DHT22;57789;53.868;10.728;2023-02-25T05:58:38;1.30;99.90
70368;DHT22;57789;53.868;10.728;2023-02-25T06:01:08;1.30;99.90
70368;DHT22;57789;53.868;10.728;2023-02-25T06:03:36;1.30;99.90
70368;DHT22;57789;53.868;10.728;2023-02-25T06:06:03;1.30;99.90
70368;DHT22;57789;53.868;10.728;2023-02-25T06:08:29;1.40;99.90
70368;DHT22;57789;53.868;10.728;2023-02-25T06:10:55;1.40;99.90
70368;DHT22;57789;53.868;10.728;2023-02-25T06:13:22;1.40;99.90
70368;DHT22;57789;53.868;10.728;2023-02-25T06:15:47;1.40;99.90
70368;DHT22;57789;53.868;10.728;2023-02-25T06:18:13;1.40;99.90
70368;DHT22;57789;53.868;10.728;2023-02-25T06:20:38;1.40;99.90
70368;DHT22;57789;53.868;10.728;2023-02-25T06:23:04;1.50;99.90
70368;DHT22;57789;53.868;10.728;2023-02-25T06:25:30;1.50;99.90
70368;DHT22;57789;53.868;10.728;2023-02-25T06:27:57;1.50;99.90
70368;DHT22;57789;53.868;10.728;2023-02-25T06:30:23;1.50;99.90
70368;DHT22;57789;53.868;10.728;2023-02-25T06:32:49;1.50;99.90
70368;DHT22;57789;53.868;10.728;2023-02-25T06:35:15;1.50;99.90
70368;DHT22;57789;53.868;10.728;2023-02-25T06:37:40;1.50;99.90
70368;DHT22;57789;53.868;10.728;2023-02-25T06:40:06;1.40;99.90
70368;DHT22;57789;53.868;10.728;2023-02-25T06:42:32;1.40;99.90
70368;DHT22;57789;53.868;10.728;2023-02-25T06:44:58;1.40;99.90
70368;DHT22;57789;53.868;10.728;2023-02-25T06:47:24;1.40;99.90
70368;DHT22;57789;53.868;10.728;2023-02-25T06:49:49;1.40;99.90
70368;DHT22;57789;53.868;10.728;2023-02-25T06:52:15;1.40;99.90
70368;DHT22;57789;53.868;10.728;2023-02-25T06:54:41;1.40;99.90
70368;DHT22;57789;53.868;10.728;2023-02-25T06:57:06;1.50;99.90
70368;DHT22;57789;53.868;10.728;2023-02-25T06:59:32;1.50;99.90
70368;DHT22;57789;53.868;10.728;2023-02-25T07:02:00;1.50;99.90
70368;DHT22;57789;53.868;10.728;2023-02-25T07:04:26;1.40;99.90
70368;DHT22;57789;53.868;10.728;2023-02-25T07:06:51;1.40;99.90
70368;DHT22;57789;53.868;10.728;2023-02-25T07:09:17;1.40;99.90
70368;DHT22;57789;53.868;10.728;2023-02-25T07:11:42;1.40;99.90
70368;DHT22;57789;53.868;10.728;2023-02-25T07:14:08;1.50;99.90
70368;DHT22;57789;53.868;10.728;2023-02-25T07:16:34;1.50;99.90
70368;DHT22;57789;53.868;10.728;2023-02-25T07:19:00;1.50;99.90
70368;DHT22;57789;53.868;10.728;2023-02-25T07:21:27;1.50;99.90
70368;DHT22;57789;53.868;10.728;2023-02-25T07:23:56;1.60;99.90
70368;DHT22;57789;53.868;10.728;2023-02-25T07:26:21;1.60;99.90
70368;DHT22;57789;53.868;10.728;2023-02-25T07:28:50;1.70;99.90
70368;DHT22;57789;53.868;10.728;2023-02-25T07:31:17;1.80;99.90
70368;DHT22;57789;53.868;10.728;2023-02-25T07:33:44;1.90;99.90
70368;DHT22;57789;53.868;10.728;2023-02-25T07:36:11;1.90;99.90
70368;DHT22;57789;53.868;10.728;2023-02-25T07:38:37;1.90;99.90
70368;DHT22;57789;53.868;10.728;2023-02-25T07:41:08;2.00;99.90
70368;DHT22;57789;53.868;10.728;2023-02-25T07:43:34;2.00;99.90
70368;DHT22;57789;53.868;10.728;2023-02-25T07:46:00;2.00;99.90
70368;DHT22;57789;53.868;10.728;2023-02-25T07:48:26;2.10;99.90
70368;DHT22;57789;53.868;10.728;2023-02-25T07:50:52;2.10;99.90
70368;DHT22;57789;53.868;10.728;2023-02-25T07:53:18;2.20;99.90
70368;DHT22;57789;53.868;10.728;2023-02-25T07:55:46;2.20;99.90
70368;DHT22;57789;53.868;10.728;2023-02-25T07:58:11;2.10;99.90
70368;DHT22;57789;53.868;10.728;2023-02-25T08:00:38;2.20;99.90
70368;DHT22;57789;53.868;10.728;2023-02-25T08:03:06;2.20;99.90
70368;DHT22;57789;53.868;10.728;2023-02-25T08:05:35;2.30;99.90
70368;DHT22;57789;53.868;10.728;2023-02-25T08:08:01;2.20;99.90
70368;DHT22;57789;53.868;10.728;2023-02-25T08:10:27;2.20;99.90
70368;DHT22;57789;53.868;10.728;2023-02-25T08:12:53;2.10;99.90
70368;DHT22;57789;53.868;10.728;2023-02-25T08:15:19;2.10;99.90
70368;DHT22;57789;53.868;10.728;2023-02-25T08:17:44;2.00;99.90
70368;DHT22;57789;53.868;10.728;2023-02-25T08:20:10;1.90;99.90
70368;DHT22;57789;53.868;10.728;2023-02-25T08:22:36;1.90;99.90
70368;DHT22;57789;53.868;10.728;2023-02-25T08:25:03;1.80;99.90
70368;DHT22;57789;53.868;10.728;2023-02-25T08:27:29;1.80;99.90
70368;DHT22;57789;53.868;10.728;2023-02-25T08:29:56;1.90;99.90
70368;DHT22;57789;53.868;10.728;2023-02-25T08:32:22;1.90;99.90
70368;DHT22;57789;53.868;10.728;2023-02-25T08:34:50;2.10;99.90
70368;DHT22;57789;53.868;10.728;2023-02-25T08:37:16;2.10;99.90
70368;DHT22;57789;53.868;10.728;2023-02-25T08:39:42;2.10;99.90
70368;DHT22;57789;53.868;10.728;2023-02-25T08:42:08;2.10;99.90
70368;DHT22;57789;53.868;10.728;2023-02-25T08:44:36;2.10;99.90
70368;DHT22;57789;53.868;10.728;2023-02-25T08:47:02;2.20;99.90
70368;DHT22;57789;53.868;10.728;2023-02-25T08:49:29;2.20;99.90
70368;DHT22;57789;53.868;10.728;2023-02-25T08:51:55;2.30;99.90
70368;DHT22;57789;53.868;10.728;2023-02-25T08:54:22;2.30;99.90
70368;DHT22;57789;53.868;10.728;2023-02-25T08:56:49;2.20;99.90
70368;DHT22;57789;53.868;10.728;2023-02-25T08:59:16;2.00;99.90
70368;DHT22;57789;53.868;10.728;2023-02-25T09:01:42;1.90;99.90
70368;DHT22;57789;53.868;10.728;2023-02-25T09:04:14;1.60;99.90
70368;DHT22;57789;53.868;10.728;2023-02-25T09:06:40;1.50;99.90
70368;DHT22;57789;53.868;10.728;2023-02-25T09:09:06;1.50;99.90
70368;DHT22;57789;53.868;10.728;2023-02-25T09:11:32;1.40;99.90
70368;DHT22;57789;53.868;10.728;2023-02-25T09:13:58;1.30;99.90
70368;DHT22;57789;53.868;10.728;2023-02-25T09:16:26;1.20;99.90
70368;DHT22;57789;53.868;10.728;2023-02-25T09:18:52;1.30;99.90
70368;DHT22;57789;53.868;10.728;2023-02-25T09:21:18;1.40;99.90
70368;DHT22;57789;53.868;10.728;2023-02-25T09:23:44;1.40;99.90
70368;DHT22;57789;53.868;10.728;2023-02-25T09:26:11;1.50;99.90
70368;DHT22;57789;53.868;10.728;2023-02-25T09:28:37;1.50;99.90
70368;DHT22;57789;53.868;10.728;2023-02-25T09:31:03;1.60;99.90
70368;DHT22;57789;53.868;10.728;2023-02-25T09:33:33;1.60;99.90
70368;DHT22;57789;53.868;10.728;2023-02-25T09:36:08;1.70;99.90
70368;DHT22;57789;53.868;10.728;2023-02-25T09:38:36;1.60;99.90
70368;DHT22;57789;53.868;10.728;2023-02-25T09:41:03;1.60;99.90
70368;DHT22;57789;53.868;10.728;2023-02-25T09:43:39;1.50;99.90
70368;DHT22;57789;53.868;10.728;2023-02-25T09:46:11;1.50;99.90
70368;DHT22;57789;53.868;10.728;2023-02-25T09:48:59;1.50;99.90
70368;DHT22;57789;53.868;10.728;2023-02-25T09:51:39;1.50;99.90
70368;DHT22;57789;53.868;10.728;2023-02-25T09:56:32;1.40;99.90
70368;DHT22;57789;53.868;10.728;2023-02-25T09:58:59;1.40;99.90
70368;DHT22;57789;53.868;10.728;2023-02-25T10:01:48;1.40;99.90
70368;DHT22;57789;53.868;10.728;2023-02-25T10:04:54;1.40;99.90
70368;DHT22;57789;53.868;10.728;2023-02-25T10:07:30;1.50;99.90
70368;DHT22;57789;53.868;10.728;2023-02-25T10:12:34;1.70;99.90
70368;DHT22;57789;53.868;10.728;2023-02-25T10:24:12;2.50;99.90
70368;DHT22;57789;53.868;10.728;2023-02-25T10:26:42;2.70;99.90
70368;DHT22;57789;53.868;10.728;2023-02-25T10:29:28;2.70;99.90
70368;DHT22;57789;53.868;10.728;2023-02-25T10:31:59;2.70;99.90
70368;DHT22;57789;53.868;10.728;2023-02-25T10:34:28;2.70;99.90
70368;DHT22;57789;53.868;10.728;2023-02-25T10:36:57;2.70;99.90
70368;DHT22;57789;53.868;10.728;2023-02-25T10:39:24;2.70;99.90
70368;DHT22;57789;53.868;10.728;2023-02-25T10:41:50;2.60;99.90
70368;DHT22;57789;53.868;10.728;2023-02-25T10:44:16;2.60;99.90
70368;DHT22;57789;53.868;10.728;2023-02-25T10:47:07;2.70;99.90
70368;DHT22;57789;53.868;10.728;2023-02-25T10:49:35;2.60;99.90
70368;DHT22;57789;53.868;10.728;2023-02-25T10:52:13;2.40;99.90
70368;DHT22;57789;53.868;10.728;2023-02-25T10:54:50;2.50;99.90
70368;DHT22;57789;53.868;10.728;2023-02-25T10:57:31;2.50;99.90
70368;DHT22;57789;53.868;10.728;2023-02-25T11:00:07;2.40;99.90
70368;DHT22;57789;53.868;10.728;2023-02-25T11:02:41;2.40;99.90
70368;DHT22;57789;53.868;10.728;2023-02-25T11:05:31;2.50;99.90
70368;DHT22;57789;53.868;10.728;2023-02-25T11:07:57;2.70;99.90
70368;DHT22;57789;53.868;10.728;2023-02-25T11:10:23;2.80;99.90
70368;DHT22;57789;53.868;10.728;2023-02-25T11:12:54;2.90;99.90
70368;DHT22;57789;53.868;10.728;2023-02-25T11:15:28;3.10;99.90
70368;DHT22;57789;53.868;10.728;2023-02-25T11:20:31;3.60;99.90
70368;DHT22;57789;53.868;10.728;2023-02-25T11:22:58;3.90;99.90
70368;DHT22;57789;53.868;10.728;2023-02-25T11:25:40;4.00;99.90
70368;DHT22;57789;53.868;10.728;2023-02-25T11:28:38;4.10;99.90
70368;DHT22;57789;53.868;10.728;2023-02-25T11:33:53;4.00;99.90
70368;DHT22;57789;53.868;10.728;2023-02-25T11:36:24;3.90;99.90
70368;DHT22;57789;53.868;10.728;2023-02-25T11:39:15;4.00;99.90
70368;DHT22;57789;53.868;10.728;2023-02-25T11:41:46;4.30;99.90
70368;DHT22;57789;53.868;10.728;2023-02-25T11:47:00;4.10;99.90
70368;DHT22;57789;53.868;10.728;2023-02-25T11:49:30;3.90;99.90
70368;DHT22;57789;53.868;10.728;2023-02-25T11:52:29;3.80;99.90
70368;DHT22;57789;53.868;10.728;2023-02-25T11:55:18;3.90;99.90
70368;DHT22;57789;53.868;10.728;2023-02-25T11:57:56;3.90;99.90
70368;DHT22;57789;53.868;10.728;2023-02-25T12:06:02;4.00;99.90
70368;DHT22;57789;53.868;10.728;2023-02-25T12:17:02;5.50;99.90
70368;DHT22;57789;53.868;10.728;2023-02-25T12:25:19;4.70;99.90
70368;DHT22;57789;53.868;10.728;2023-02-25T12:31:10;4.50;99.90
70368;DHT22;57789;53.868;10.728;2023-02-25T12:41:49;4.40;99.90
70368;DHT22;57789;53.868;10.728;2023-02-25T13:19:58;4.70;99.90
70368;DHT22;57789;53.868;10.728;2023-02-25T13:30:32;4.70;99.90
70368;DHT22;57789;53.868;10.728;2023-02-25T13:35:55;4.40;99.90
70368;DHT22;57789;53.868;10.728;2023-02-25T13:41:47;4.50;99.90
70368;DHT22;57789;53.868;10.728;2023-02-25T13:44:52;4.60;99.90
70368;DHT22;57789;53.868;10.728;2023-02-25T13:58:39;4.60;99.90
70368;DHT22;57789;53.868;10.728;2023-02-25T14:01:14;4.80;99.90
70368;DHT22;57789;53.868;10.728;2023-02-25T14:04:06;4.70;99.90
70368;DHT22;57789;53.868;10.728;2023-02-25T14:12:41;4.80;99.90
70368;DHT22;57789;53.868;10.728;2023-02-25T14:15:41;4.60;99.90
70368;DHT22;57789;53.868;10.728;2023-02-25T14:23:50;4.40;99.90
70368;DHT22;57789;53.868;10.728;2023-02-25T14:26:46;4.30;99.90
70368;DHT22;57789;53.868;10.728;2023-02-25T14:32:15;5.00;99.90
70368;DHT22;57789;53.868;10.728;2023-02-25T14:34:53;5.00;99.90
70368;DHT22;57789;53.868;10.728;2023-02-25T14:40:38;5.30;99.90
70368;DHT22;57789;53.868;10.728;2023-02-25T14:43:17;5.30;99.90
70368;DHT22;57789;53.868;10.728;2023-02-25T14:45:53;4.80;99.90
70368;DHT22;57789;53.868;10.728;2023-02-25T14:57:18;4.30;99.90
70368;DHT22;57789;53.868;10.728;2023-02-25T15:02:52;4.40;99.90
70368;DHT22;57789;53.868;10.728;2023-02-25T15:14:32;4.50;99.90
70368;DHT22;57789;53.868;10.728;2023-02-25T15:22:34;4.10;99.90
70368;DHT22;57789;53.868;10.728;2023-02-25T15:27:50;4.10;99.90
70368;DHT22;57789;53.868;10.728;2023-02-25T15:30:24;4.00;99.90
70368;DHT22;57789;53.868;10.728;2023-02-25T15:42:57;3.40;99.90
70368;DHT22;57789;53.868;10.728;2023-02-25T15:53:34;3.50;99.90
70368;DHT22;57789;53.868;10.728;2023-02-25T15:56:22;3.60;99.90
70368;DHT22;57789;53.868;10.728;2023-02-25T15:58:54;3.70;99.90
70368;DHT22;57789;53.868;10.728;2023-02-25T16:01:40;3.70;99.90
70368;DHT22;57789;53.868;10.728;2023-02-25T16:04:40;3.80;99.90
70368;DHT22;57789;53.868;10.728;2023-02-25T16:07:13;3.90;99.90
70368;DHT22;57789;53.868;10.728;2023-02-25T16:09:43;3.90;99.90
70368;DHT22;57789;53.868;10.728;2023-02-25T16:12:12;3.70;99.90
70368;DHT22;57789;53.868;10.728;2023-02-25T16:14:39;3.60;99.90
70368;DHT22;57789;53.868;10.728;2023-02-25T16:19:57;3.30;99.90
70368;DHT22;57789;53.868;10.728;2023-02-25T16:22:26;3.10;99.90
70368;DHT22;57789;53.868;10.728;2023-02-25T16:24:54;3.10;99.90
70368;DHT22;57789;53.868;10.728;2023-02-25T16:33:29;2.90;99.90
70368;DHT22;57789;53.868;10.728;2023-02-25T16:38:33;2.70;99.90
70368;DHT22;57789;53.868;10.728;2023-02-25T16:41:02;2.60;99.90
70368;DHT22;57789;53.868;10.728;2023-02-25T16:43:32;2.60;99.90
70368;DHT22;57789;53.868;10.728;2023-02-25T16:46:13;2.60;99.90
70368;DHT22;57789;53.868;10.728;2023-02-25T16:48:54;2.60;99.90
70368;DHT22;57789;53.868;10.728;2023-02-25T16:51:35;2.50;99.90
70368;DHT22;57789;53.868;10.728;2023-02-25T16:54:21;2.50;99.90
70368;DHT22;57789;53.868;10.728;2023-02-25T16:56:53;2.50;99.90
70368;DHT22;57789;53.868;10.728;2023-02-25T16:59:21;2.50;99.90
70368;DHT22;57789;53.868;10.728;2023-02-25T17:01:54;2.60;99.90
70368;DHT22;57789;53.868;10.728;2023-02-25T17:04:32;2.60;99.90
70368;DHT22;57789;53.868;10.728;2023-02-25T17:07:17;2.50;99.90
70368;DHT22;57789;53.868;10.728;2023-02-25T17:09:51;2.50;99.90
70368;DHT22;57789;53.868;10.728;2023-02-25T17:14:59;2.30;99.90
70368;DHT22;57789;53.868;10.728;2023-02-25T17:17:36;2.20;99.90
70368;DHT22;57789;53.868;10.728;2023-02-25T17:20:07;2.20;99.90
70368;DHT22;57789;53.868;10.728;2023-02-25T17:22:38;2.20;99.90
70368;DHT22;57789;53.868;10.728;2023-02-25T17:25:05;2.20;99.90
70368;DHT22;57789;53.868;10.728;2023-02-25T17:27:31;2.20;99.90
70368;DHT22;57789;53.868;10.728;2023-02-25T17:29:57;2.10;99.90
70368;DHT22;57789;53.868;10.728;2023-02-25T17:32:24;2.10;99.90
70368;DHT22;57789;53.868;10.728;2023-02-25T17:34:53;2.00;99.90
70368;DHT22;57789;53.868;10.728;2023-02-25T17:37:20;1.80;99.90
70368;DHT22;57789;53.868;10.728;2023-02-25T17:39:47;1.80;99.90
70368;DHT22;57789;53.868;10.728;2023-02-25T17:42:36;1.80;99.90
70368;DHT22;57789;53.868;10.728;2023-02-25T17:45:05;1.80;99.90
70368;DHT22;57789;53.868;10.728;2023-02-25T17:47:50;1.80;99.90
70368;DHT22;57789;53.868;10.728;2023-02-25T17:50:28;1.90;99.90
70368;DHT22;57789;53.868;10.728;2023-02-25T17:52:54;1.80;99.90
70368;DHT22;57789;53.868;10.728;2023-02-25T17:55:32;1.60;99.90
70368;DHT22;57789;53.868;10.728;2023-02-25T17:58:01;1.60;99.90
70368;DHT22;57789;53.868;10.728;2023-02-25T18:00:30;1.40;99.90
70368;DHT22;57789;53.868;10.728;2023-02-25T18:03:41;1.30;99.90
70368;DHT22;57789;53.868;10.728;2023-02-25T18:06:32;1.20;99.90
70368;DHT22;57789;53.868;10.728;2023-02-25T18:08:58;1.20;99.90
70368;DHT22;57789;53.868;10.728;2023-02-25T18:14:01;1.10;99.90
70368;DHT22;57789;53.868;10.728;2023-02-25T18:18:57;1.20;99.90
70368;DHT22;57789;53.868;10.728;2023-02-25T18:21:24;1.20;99.90
70368;DHT22;57789;53.868;10.728;2023-02-25T18:23:50;1.20;99.90
70368;DHT22;57789;53.868;10.728;2023-02-25T18:26:25;1.30;99.90
70368;DHT22;57789;53.868;10.728;2023-02-25T18:28:51;1.20;99.90
70368;DHT22;57789;53.868;10.728;2023-02-25T18:31:17;1.30;99.90
70368;DHT22;57789;53.868;10.728;2023-02-25T18:33:45;1.40;99.90
70368;DHT22;57789;53.868;10.728;2023-02-25T18:36:20;1.40;99.90
70368;DHT22;57789;53.868;10.728;2023-02-25T18:38:48;1.40;99.90
70368;DHT22;57789;53.868;10.728;2023-02-25T18:41:13;1.40;99.90
70368;DHT22;57789;53.868;10.728;2023-02-25T18:43:41;1.40;99.90
70368;DHT22;57789;53.868;10.728;2023-02-25T18:46:07;1.40;99.90
70368;DHT22;57789;53.868;10.728;2023-02-25T18:48:33;1.30;99.90
70368;DHT22;57789;53.868;10.728;2023-02-25T18:51:00;1.30;99.90
70368;DHT22;57789;53.868;10.728;2023-02-25T18:53:26;1.20;99.90
70368;DHT22;57789;53.868;10.728;2023-02-25T18:55:53;1.10;99.90
70368;DHT22;57789;53.868;10.728;2023-02-25T18:58:20;1.10;99.90
70368;DHT22;57789;53.868;10.728;2023-02-25T19:00:49;1.10;99.90
70368;DHT22;57789;53.868;10.728;2023-02-25T19:03:23;1.10;99.90
70368;DHT22;57789;53.868;10.728;2023-02-25T19:05:50;1.10;99.90
70368;DHT22;57789;53.868;10.728;2023-02-25T19:08:16;1.00;99.90
70368;DHT22;57789;53.868;10.728;2023-02-25T19:10:43;1.00;99.90
70368;DHT22;57789;53.868;10.728;2023-02-25T19:15:43;0.90;99.90
70368;DHT22;57789;53.868;10.728;2023-02-25T19:18:13;0.80;99.90
70368;DHT22;57789;53.868;10.728;2023-02-25T19:20:40;0.80;99.90
70368;DHT22;57789;53.868;10.728;2023-02-25T19:23:10;0.80;99.90
70368;DHT22;57789;53.868;10.728;2023-02-25T19:25:36;0.70;99.90
70368;DHT22;57789;53.868;10.728;2023-02-25T19:28:03;0.70;99.90
70368;DHT22;57789;53.868;10.728;2023-02-25T19:30:32;0.70;99.90
70368;DHT22;57789;53.868;10.728;2023-02-25T19:33:00;0.60;99.90
70368;DHT22;57789;53.868;10.728;2023-02-25T19:35:26;0.60;99.90